Time;durP1;ratioP1;P1;durP2;ratioP2;P2;SDS_P1;SDS_P2;PMS_P1;PMS_P2;Temp;Humidity;BMP_temperature;BMP_pressure;BME280_temperature;BME280_humidity;BME280_pressure;Samples;Min_cycle;Max_cycle;Signal;HPM_P1;HPM_P2
2022/11/12 11:21:53;;;;;;;11.18;3.78;;;;;;;20.81;53.54;102050.97;4932768;27;4575030;-49
2022/11/12 11:24:31;;;;;;;11.10;3.40;;;;;;;21.90;50.57;102045.88;5074348;28;20044;-49
2022/11/12 11:27:23;;;;;;;17.38;5.03;;;;;;;22.69;48.72;102041.88;5053035;28;20032;-48
2022/11/12 11:29:51;;;;;;;14.15;3.28;;;;;;;23.29;46.88;102044.78;5067147;28;20122;-49
2022/11/12 11:32:23;;;;;;;11.23;3.78;;;;;;;23.63;45.94;102044.13;5055724;28;20034;-48
2022/11/12 11:35:10;;;;;;;8.80;3.17;;;;;;;23.87;45.00;102035.25;5073465;28;20040;-50
2022/11/12 11:37:52;;;;;;;8.45;3.28;;;;;;;24.01;44.92;102034.81;5065344;28;20040;-47
2022/11/12 11:40:29;;;;;;;15.43;3.72;;;;;;;24.08;44.51;102031.50;5056366;28;20036;-46
2022/11/12 11:43:30;;;;;;;13.75;3.40;;;;;;;24.23;44.65;102020.59;5073710;28;20107;-46
2022/11/12 11:46:31;;;;;;;13.63;3.28;;;;;;;24.25;44.61;102019.78;5053831;28;20777;-46
2022/11/12 11:49:03;;;;;;;18.80;4.30;;;;;;;24.30;44.38;102017.31;5066840;28;20052;-49
2022/11/12 11:51:58;;;;;;;15.77;3.92;;;;;;;24.23;44.33;102005.78;5075041;28;20508;-47
2022/11/12 11:54:36;;;;;;;16.23;3.73;;;;;;;24.28;44.52;102005.91;5075007;28;20033;-50
2022/11/12 11:57:12;;;;;;;18.83;4.75;;;;;;;24.32;44.48;102013.00;5070406;28;20333;-54
2022/11/12 11:59:59;;;;;;;18.25;5.60;;;;;;;24.32;43.99;102005.16;5057470;28;20028;-53
2022/11/12 12:02:46;;;;;;;17.77;4.75;;;;;;;24.41;44.53;102010.63;5067946;28;20047;-50
2022/11/12 12:05:33;;;;;;;18.70;5.55;;;;;;;24.41;44.38;102007.09;5060771;28;20097;-50
2022/11/12 12:08:04;;;;;;;19.20;5.95;;;;;;;24.46;44.26;102009.88;5055816;28;20032;-54
2022/11/12 17:02:31;;;;;;;13.20;3.70;;;;;;;20.67;54.70;101884.38;5097630;27;20520;-53
2022/11/12 17:05:03;;;;;;;11.25;3.20;;;;;;;21.74;51.53;101880.75;5096363;28;20092;-50
2022/11/12 17:07:31;;;;;;;12.80;3.63;;;;;;;22.38;49.32;101867.28;5096507;28;20074;-53
2022/11/12 17:10:00;;;;;;;11.88;3.17;;;;;;;22.99;48.28;101889.38;5079346;28;20080;-50
2022/11/12 17:12:28;;;;;;;12.10;3.90;;;;;;;23.39;46.82;101887.13;5097808;28;20057;-46
2022/11/12 17:14:56;;;;;;;10.45;3.67;;;;;;;23.66;46.29;101891.41;5095482;28;20032;-52
2022/11/12 17:17:24;;;;;;;10.23;3.35;;;;;;;23.78;45.71;101891.75;5093922;28;20026;-47
2022/11/12 17:19:53;;;;;;;11.05;3.20;;;;;;;23.87;45.16;101891.13;5091944;28;20671;-52
2022/11/12 17:22:21;;;;;;;8.43;3.30;;;;;;;23.99;45.40;101890.63;5075760;28;20463;-49
2022/11/12 17:24:49;;;;;;;9.48;2.95;;;;;;;24.09;44.99;101892.66;5094082;28;20077;-48
2022/11/12 17:27:16;;;;;;;8.70;2.78;;;;;;;24.20;44.68;101889.41;5091983;28;20023;-47
2022/11/12 17:29:43;;;;;;;6.88;2.75;;;;;;;24.17;44.96;101885.00;5094230;28;20031;-51
2022/11/12 17:32:10;;;;;;;9.68;3.13;;;;;;;24.16;44.81;101887.59;5095079;28;20036;-49
2022/11/12 17:34:39;;;;;;;9.25;3.03;;;;;;;24.18;44.81;101884.16;5094562;28;20028;-47
2022/11/12 17:37:07;;;;;;;11.10;3.85;;;;;;;24.26;44.53;101892.22;5091623;28;20024;-47
2022/11/12 17:39:34;;;;;;;9.90;3.33;;;;;;;24.28;44.90;101895.75;5093817;28;20042;-50
2022/11/12 17:42:02;;;;;;;11.93;3.22;;;;;;;24.31;44.73;101887.97;5095225;28;20074;-49
2022/11/12 17:44:30;;;;;;;12.48;3.20;;;;;;;24.34;44.56;101887.16;5094534;28;20059;-46
2022/11/12 17:46:57;;;;;;;11.02;3.70;;;;;;;24.28;44.43;101888.78;5090846;28;20020;-47
2022/11/12 17:49:27;;;;;;;11.90;3.35;;;;;;;24.33;44.63;101899.38;5093903;28;20135;-47
2022/11/12 17:51:55;;;;;;;14.43;3.33;;;;;;;24.33;44.79;101893.25;5094844;28;20051;-49
2022/11/12 17:54:24;;;;;;;10.52;3.55;;;;;;;24.32;44.54;101895.00;5093980;28;20042;-52
2022/11/12 17:56:51;;;;;;;8.48;2.88;;;;;;;24.37;44.38;101893.38;5091977;28;20430;-49
2022/11/12 17:59:19;;;;;;;7.20;3.03;;;;;;;24.36;44.55;101893.34;5093345;28;20782;-52
2022/11/12 18:01:47;;;;;;;10.27;3.85;;;;;;;24.40;44.25;101898.69;5094316;28;20522;-51
2022/11/12 18:04:14;;;;;;;6.22;2.75;;;;;;;24.42;44.39;101897.00;5094048;28;20067;-53
2022/11/12 18:06:42;;;;;;;7.45;2.53;;;;;;;24.42;44.17;101889.16;5091407;28;21117;-49
2022/11/12 18:09:14;;;;;;;7.95;2.95;;;;;;;24.47;44.00;101897.13;5093657;28;20028;-54
2022/11/12 18:11:45;;;;;;;8.00;3.03;;;;;;;24.45;44.05;101901.44;5092588;28;20055;-50
2022/11/12 18:14:13;;;;;;;13.02;2.90;;;;;;;24.47;44.09;101905.00;5080291;28;20982;-53
2022/11/12 18:16:41;;;;;;;11.18;2.88;;;;;;;24.47;43.93;101898.88;5077909;28;20059;-53
2022/11/12 18:19:09;;;;;;;15.63;4.65;;;;;;;24.46;44.21;101894.47;5079392;28;20032;-55
2022/11/12 18:21:40;;;;;;;29.52;10.02;;;;;;;24.46;44.12;101890.09;5080773;28;20043;-51
2022/11/12 18:24:13;;;;;;;41.60;11.38;;;;;;;24.48;44.14;101890.16;5080399;28;20107;-54
2022/11/12 18:26:43;;;;;;;63.25;16.20;;;;;;;24.46;44.26;101887.47;5077256;28;20043;-51
2022/11/12 18:29:11;;;;;;;47.10;14.02;;;;;;;24.49;44.07;101899.81;5079620;28;20036;-53
2022/11/12 18:31:39;;;;;;;48.78;14.43;;;;;;;24.51;44.32;101895.47;5080541;28;20473;-51
2022/11/12 18:34:11;;;;;;;49.30;13.10;;;;;;;24.51;44.07;101911.19;5079828;28;20032;-54
2022/11/12 18:36:38;;;;;;;44.42;12.50;;;;;;;24.51;44.23;101903.31;5077032;28;20497;-51
2022/11/12 18:39:07;;;;;;;40.35;10.95;;;;;;;24.54;44.23;101899.06;5079239;28;20082;-52
2022/11/12 18:41:35;;;;;;;34.58;10.40;;;;;;;24.58;44.02;101898.28;5080263;28;20476;-52
2022/11/12 18:44:03;;;;;;;41.67;12.82;;;;;;;24.60;44.29;101900.94;5079554;28;20029;-49
2022/11/12 18:46:30;;;;;;;41.92;11.98;;;;;;;24.59;44.29;101909.66;5077362;28;20437;-51
2022/11/12 18:48:59;;;;;;;33.47;10.68;;;;;;;24.61;44.06;101907.97;5061515;28;20086;-48
2022/11/12 18:51:27;;;;;;;37.13;9.68;;;;;;;24.63;44.14;101898.41;5061369;28;20396;-53
2022/11/12 18:53:55;;;;;;;27.67;8.95;;;;;;;24.65;43.99;101891.47;5079927;28;20713;-47
2022/11/12 18:56:22;;;;;;;37.05;11.05;;;;;;;24.67;43.79;101896.75;5077035;28;20035;-48
2022/11/12 18:58:50;;;;;;;38.22;9.10;;;;;;;24.67;43.63;101896.75;5079169;28;20028;-49
2022/11/12 19:01:20;;;;;;;31.45;8.82;;;;;;;24.66;44.04;101890.59;5079629;28;20066;-49
2022/11/12 19:03:52;;;;;;;31.30;8.93;;;;;;;24.65;43.78;101886.22;5079244;28;20028;-48
2022/11/12 19:06:19;;;;;;;30.33;7.57;;;;;;;24.70;43.70;101881.13;5076848;28;20476;-51
2022/11/12 19:08:47;;;;;;;24.77;7.78;;;;;;;24.69;43.56;101884.56;5078784;28;20032;-52
2022/11/12 19:11:17;;;;;;;26.80;9.18;;;;;;;24.70;43.56;101887.22;5079656;28;20396;-49
2022/11/12 19:13:46;;;;;;;31.15;8.18;;;;;;;24.75;43.53;101887.34;5061427;28;20124;-53
2022/11/12 19:16:16;;;;;;;27.65;7.78;;;;;;;24.77;43.33;101884.78;5057125;28;20040;-52
2022/11/12 19:18:44;;;;;;;22.95;7.22;;;;;;;24.70;43.67;101881.13;5060616;28;20027;-51
2022/11/12 19:21:15;;;;;;;24.10;7.50;;;;;;;24.68;43.66;101885.41;5061091;28;20398;-52
2022/11/12 19:23:44;;;;;;;20.90;6.97;;;;;;;24.67;43.67;101884.50;5059916;28;20034;-51
2022/11/12 19:26:14;;;;;;;22.92;5.90;;;;;;;24.66;43.49;101869.59;5075396;28;20024;-52
2022/11/12 19:28:43;;;;;;;20.75;6.18;;;;;;;24.66;43.74;101873.97;5077940;28;20036;-50
2022/11/12 19:31:22;;;;;;;21.35;5.57;;;;;;;24.64;43.84;101866.09;5079032;28;20028;-51
2022/11/12 19:33:49;;;;;;;13.68;5.40;;;;;;;24.77;43.12;101871.66;5078517;28;20028;-51
2022/11/12 19:36:19;;;;;;;11.77;4.20;;;;;;;24.80;43.21;101862.09;5075599;28;20051;-50
2022/11/12 19:38:47;;;;;;;15.05;4.85;;;;;;;24.97;42.49;101864.25;5080933;28;20074;-47
2022/11/12 19:41:16;;;;;;;12.68;4.50;;;;;;;24.91;42.85;101864.97;5080974;28;20040;-51
2022/11/12 19:43:44;;;;;;;14.30;4.22;;;;;;;24.99;42.31;101866.03;5081213;28;20032;-47
2022/11/12 19:46:12;;;;;;;14.45;3.75;;;;;;;24.95;42.51;101861.59;5077949;28;20032;-48
2022/11/12 19:48:39;;;;;;;13.13;4.00;;;;;;;25.09;42.07;101858.38;5080649;28;20548;-48
2022/11/12 19:51:08;;;;;;;10.88;4.60;;;;;;;25.11;42.17;101867.19;5081334;28;20523;-51
2022/11/12 19:53:40;;;;;;;14.23;4.63;;;;;;;25.14;42.01;101873.38;5081222;28;20040;-51
2022/11/12 19:56:08;;;;;;;12.15;4.28;;;;;;;25.05;41.88;101867.03;5077223;28;20046;-52
2022/11/12 19:58:35;;;;;;;14.50;3.88;;;;;;;25.05;41.95;101867.94;5081050;28;20032;-53
2022/11/12 20:01:04;;;;;;;13.02;3.95;;;;;;;25.10;42.18;101874.16;5080148;28;20056;-50
2022/11/12 20:03:32;;;;;;;13.23;4.53;;;;;;;25.10;41.67;101853.16;5080379;28;20444;-50
2022/11/12 20:06:05;;;;;;;10.15;3.25;;;;;;;24.97;42.25;101852.00;5058796;28;20035;-51
2022/11/12 20:08:33;;;;;;;13.93;3.85;;;;;;;25.11;41.93;101862.81;5080202;28;20046;-54
2022/11/12 20:11:01;;;;;;;9.90;3.28;;;;;;;25.18;41.80;101863.81;5080562;28;20054;-50
